createdAt,value
2023-02-07T00:01:23.978Z,100.00
2023-02-07T00:03:51.430Z,100.00
2023-02-07T00:06:40.968Z,100.00
2023-02-07T00:09:10.705Z,100.00
2023-02-07T00:11:40.693Z,100.00
2023-02-07T00:14:10.065Z,100.00
2023-02-07T00:16:37.054Z,100.00
2023-02-07T00:19:04.045Z,100.00
2023-02-07T00:21:31.064Z,100.00
2023-02-07T00:23:58.072Z,100.00
2023-02-07T00:26:27.066Z,100.00
2023-02-07T00:28:55.210Z,100.00
2023-02-07T00:31:29.686Z,100.00
2023-02-07T00:34:00.771Z,100.00
2023-02-07T00:36:29.850Z,100.00
2023-02-07T00:39:02.510Z,100.00
2023-02-07T00:41:30.068Z,100.00
2023-02-07T00:43:57.094Z,100.00
2023-02-07T00:46:24.821Z,100.00
2023-02-07T00:48:54.245Z,100.00
2023-02-07T00:51:21.413Z,100.00
2023-02-07T00:53:48.616Z,100.00
2023-02-07T00:56:15.700Z,100.00
2023-02-07T00:58:42.458Z,100.00
2023-02-07T01:01:09.331Z,100.00
2023-02-07T01:03:36.085Z,100.00
2023-02-07T01:06:02.866Z,100.00
2023-02-07T01:08:29.630Z,100.00
2023-02-07T01:10:57.701Z,100.00
2023-02-07T01:13:24.354Z,100.00
2023-02-07T01:15:51.048Z,100.00
2023-02-07T01:18:17.880Z,100.00
2023-02-07T01:20:45.341Z,100.00
2023-02-07T01:23:13.602Z,100.00
2023-02-07T01:25:41.592Z,100.00
2023-02-07T01:28:08.338Z,100.00
2023-02-07T01:30:35.115Z,100.00
2023-02-07T01:33:02.459Z,100.00
2023-02-07T01:35:29.340Z,100.00
2023-02-07T01:37:58.424Z,100.00
2023-02-07T01:40:27.018Z,100.00
2023-02-07T01:42:53.685Z,100.00
2023-02-07T01:45:36.614Z,100.00
2023-02-07T01:48:11.560Z,100.00
2023-02-07T01:50:41.503Z,100.00
2023-02-07T01:53:10.432Z,100.00
2023-02-07T01:55:41.213Z,100.00
2023-02-07T01:58:08.924Z,100.00
2023-02-07T02:00:36.884Z,100.00
2023-02-07T02:03:04.936Z,100.00
2023-02-07T02:05:33.621Z,100.00
2023-02-07T02:08:00.409Z,100.00
2023-02-07T02:10:52.012Z,100.00
2023-02-07T02:13:28.265Z,100.00
2023-02-07T02:16:07.061Z,100.00
2023-02-07T02:18:45.232Z,100.00
2023-02-07T02:21:44.779Z,100.00
2023-02-07T02:24:15.906Z,100.00
2023-02-07T02:27:06.630Z,100.00
2023-02-07T02:30:19.726Z,100.00
2023-02-07T02:32:58.583Z,100.00
2023-02-07T02:36:10.849Z,100.00
2023-02-07T02:38:51.770Z,100.00
2023-02-07T02:41:23.942Z,100.00
2023-02-07T02:44:03.994Z,100.00
2023-02-07T02:46:37.423Z,100.00
2023-02-07T02:49:07.868Z,100.00
2023-02-07T02:51:34.570Z,100.00
2023-02-07T02:54:01.660Z,100.00
2023-02-07T02:56:57.821Z,100.00
2023-02-07T02:59:52.714Z,100.00
2023-02-07T03:02:22.550Z,100.00
2023-02-07T03:05:14.280Z,100.00
2023-02-07T03:08:25.530Z,100.00
2023-02-07T03:11:07.934Z,100.00
2023-02-07T03:13:56.424Z,100.00
2023-02-07T03:16:29.494Z,100.00
2023-02-07T03:19:24.957Z,100.00
2023-02-07T03:22:13.881Z,100.00
2023-02-07T03:24:51.076Z,100.00
2023-02-07T03:27:21.093Z,100.00
2023-02-07T03:29:57.717Z,100.00
2023-02-07T03:32:29.777Z,100.00
2023-02-07T03:35:07.893Z,100.00
2023-02-07T03:37:51.308Z,100.00
2023-02-07T03:40:18.872Z,100.00
2023-02-07T03:43:32.326Z,100.00
2023-02-07T03:45:59.043Z,100.00
2023-02-07T03:48:25.732Z,100.00
2023-02-07T03:50:53.012Z,100.00
2023-02-07T03:53:20.587Z,100.00
2023-02-07T03:55:47.508Z,100.00
2023-02-07T03:58:14.550Z,100.00
2023-02-07T04:00:41.302Z,100.00
2023-02-07T04:03:08.013Z,100.00
2023-02-07T04:05:34.753Z,100.00
2023-02-07T04:08:01.491Z,100.00
2023-02-07T04:10:28.218Z,100.00
2023-02-07T04:12:54.948Z,100.00
2023-02-07T04:15:21.942Z,100.00
2023-02-07T04:17:48.591Z,100.00
2023-02-07T04:20:15.296Z,100.00
2023-02-07T04:22:41.963Z,100.00
2023-02-07T04:25:08.714Z,100.00
2023-02-07T04:27:35.370Z,100.00
2023-02-07T04:30:02.059Z,100.00
2023-02-07T04:32:28.762Z,100.00
2023-02-07T04:34:55.452Z,100.00
2023-02-07T04:37:22.144Z,100.00
2023-02-07T04:39:48.800Z,100.00
2023-02-07T04:42:15.467Z,100.00
2023-02-07T04:44:42.084Z,100.00
2023-02-07T04:47:08.743Z,100.00
2023-02-07T04:49:35.484Z,100.00
2023-02-07T04:52:02.310Z,100.00
2023-02-07T04:54:28.937Z,100.00
2023-02-07T04:56:55.687Z,100.00
2023-02-07T04:59:22.369Z,100.00
2023-02-07T05:01:49.014Z,100.00
2023-02-07T05:04:15.733Z,100.00
2023-02-07T05:06:42.366Z,100.00
2023-02-07T05:09:08.978Z,100.00
2023-02-07T05:11:35.820Z,100.00
2023-02-07T05:14:02.452Z,100.00
2023-02-07T05:16:29.160Z,100.00
2023-02-07T05:18:55.872Z,100.00
2023-02-07T05:21:22.716Z,100.00
2023-02-07T05:23:50.060Z,100.00
2023-02-07T05:26:17.425Z,100.00
2023-02-07T05:28:44.925Z,100.00
2023-02-07T05:31:11.733Z,100.00
2023-02-07T05:33:38.404Z,100.00
2023-02-07T05:36:05.548Z,100.00
2023-02-07T05:38:32.256Z,100.00
2023-02-07T05:40:58.999Z,100.00
2023-02-07T05:43:25.639Z,100.00
2023-02-07T05:45:52.377Z,100.00
2023-02-07T05:48:19.061Z,100.00
2023-02-07T05:50:45.734Z,100.00
2023-02-07T05:53:13.071Z,100.00
2023-02-07T05:55:40.927Z,100.00
2023-02-07T05:58:07.760Z,100.00
2023-02-07T06:00:34.421Z,100.00
2023-02-07T06:03:01.013Z,100.00
2023-02-07T06:05:31.843Z,100.00
2023-02-07T06:07:58.987Z,100.00
2023-02-07T06:10:25.719Z,100.00
2023-02-07T06:12:52.512Z,100.00
2023-02-07T06:15:19.208Z,100.00
2023-02-07T06:17:45.866Z,100.00
2023-02-07T06:20:12.768Z,100.00
2023-02-07T06:22:39.561Z,100.00
2023-02-07T06:25:10.611Z,100.00
2023-02-07T06:27:39.780Z,100.00
2023-02-07T06:30:08.026Z,100.00
2023-02-07T06:32:34.870Z,100.00
2023-02-07T06:35:01.583Z,100.00
2023-02-07T06:37:28.247Z,100.00
2023-02-07T06:39:54.918Z,100.00
2023-02-07T06:42:21.773Z,100.00
2023-02-07T06:44:48.425Z,100.00
2023-02-07T06:47:16.395Z,100.00
2023-02-07T06:49:43.148Z,100.00
2023-02-07T06:52:09.779Z,100.00
2023-02-07T06:54:36.474Z,100.00
2023-02-07T06:57:03.413Z,100.00
2023-02-07T06:59:30.088Z,100.00
2023-02-07T07:01:56.935Z,100.00
2023-02-07T07:04:23.572Z,100.00
2023-02-07T07:06:50.224Z,100.00
2023-02-07T07:09:16.948Z,100.00
2023-02-07T07:11:44.400Z,100.00
2023-02-07T07:14:11.894Z,100.00
2023-02-07T07:16:40.877Z,100.00
2023-02-07T07:19:07.509Z,100.00
2023-02-07T07:21:34.200Z,100.00
2023-02-07T07:24:00.818Z,100.00
2023-02-07T07:26:36.567Z,100.00
2023-02-07T07:29:09.594Z,100.00
2023-02-07T07:31:36.292Z,100.00
2023-02-07T07:34:02.920Z,100.00
2023-02-07T07:36:29.655Z,100.00
2023-02-07T07:38:56.388Z,100.00
2023-02-07T07:41:23.767Z,100.00
2023-02-07T07:43:50.533Z,100.00
2023-02-07T07:46:17.192Z,100.00
2023-02-07T07:48:43.849Z,100.00
2023-02-07T07:51:10.508Z,100.00
2023-02-07T07:53:37.128Z,100.00
2023-02-07T07:56:04.171Z,100.00
2023-02-07T07:58:31.461Z,100.00
2023-02-07T08:00:58.126Z,100.00
2023-02-07T08:03:24.817Z,100.00
2023-02-07T08:05:51.795Z,100.00
2023-02-07T08:08:19.956Z,100.00
2023-02-07T08:10:47.199Z,100.00
2023-02-07T08:13:13.894Z,100.00
2023-02-07T08:15:40.609Z,100.00
2023-02-07T08:18:07.302Z,100.00
2023-02-07T08:20:35.157Z,100.00
2023-02-07T08:23:02.241Z,100.00
2023-02-07T08:25:29.161Z,100.00
2023-02-07T08:27:55.901Z,100.00
2023-02-07T08:30:22.694Z,100.00
2023-02-07T08:32:51.734Z,100.00
2023-02-07T08:35:18.897Z,100.00
2023-02-07T08:37:45.613Z,100.00
2023-02-07T08:40:13.157Z,100.00
2023-02-07T08:42:40.064Z,100.00
2023-02-07T08:45:07.184Z,100.00
2023-02-07T08:47:33.936Z,100.00
2023-02-07T08:50:00.553Z,100.00
2023-02-07T08:52:28.962Z,100.00
2023-02-07T08:54:56.441Z,100.00
2023-02-07T08:57:24.531Z,100.00
2023-02-07T08:59:52.469Z,100.00
2023-02-07T09:02:19.206Z,100.00
2023-02-07T09:04:45.918Z,100.00
2023-02-07T09:07:12.695Z,100.00
2023-02-07T09:09:40.407Z,100.00
2023-02-07T09:12:08.494Z,100.00
2023-02-07T09:14:35.556Z,100.00
2023-02-07T09:17:02.672Z,100.00
2023-02-07T09:19:29.331Z,100.00
2023-02-07T09:21:55.989Z,100.00
2023-02-07T09:24:22.782Z,100.00
2023-02-07T09:26:49.880Z,100.00
2023-02-07T09:29:17.129Z,100.00
2023-02-07T09:31:44.013Z,100.00
2023-02-07T09:34:10.862Z,99.86
2023-02-07T09:36:37.621Z,100.00
2023-02-07T09:39:05.447Z,100.00
2023-02-07T09:41:42.609Z,100.00
2023-02-07T09:44:25.894Z,99.48
2023-02-07T09:47:02.119Z,98.95
2023-02-07T09:49:47.705Z,99.37
2023-02-07T09:52:29.800Z,100.00
2023-02-07T09:54:58.392Z,100.00
2023-02-07T09:57:28.152Z,98.85
2023-02-07T10:00:20.637Z,97.67
2023-02-07T10:03:21.329Z,98.38
2023-02-07T10:06:01.476Z,98.70
2023-02-07T10:08:39.749Z,98.86
2023-02-07T10:11:35.568Z,98.21
2023-02-07T10:14:27.252Z,96.77
2023-02-07T10:17:35.146Z,95.80
2023-02-07T10:20:26.641Z,96.41
2023-02-07T10:23:02.804Z,96.44
2023-02-07T10:25:38.439Z,97.63
2023-02-07T10:28:14.329Z,96.81
2023-02-07T10:30:49.691Z,94.33
2023-02-07T10:33:24.030Z,95.88
2023-02-07T10:35:52.246Z,96.37
2023-02-07T10:38:38.089Z,96.66
2023-02-07T10:41:13.782Z,96.58
2023-02-07T10:43:43.789Z,97.31
2023-02-07T10:46:13.508Z,96.75
2023-02-07T10:48:40.229Z,98.24
2023-02-07T10:51:29.890Z,97.51
2023-02-07T10:54:11.317Z,98.60
2023-02-07T10:56:50.519Z,93.86
2023-02-07T10:59:45.633Z,92.80
2023-02-07T11:02:31.777Z,92.39
2023-02-07T11:05:01.014Z,89.76
2023-02-07T11:07:32.503Z,91.64
2023-02-07T11:10:21.803Z,89.62
2023-02-07T11:12:53.502Z,91.38
2023-02-07T11:15:26.072Z,88.06
2023-02-07T11:17:56.934Z,89.51
2023-02-07T11:20:39.237Z,90.69
2023-02-07T11:23:11.813Z,90.37
2023-02-07T11:25:44.274Z,89.55
2023-02-07T11:28:21.508Z,87.98
2023-02-07T11:30:56.470Z,89.08
2023-02-07T11:33:27.043Z,88.38
2023-02-07T11:36:18.910Z,87.24
2023-02-07T11:38:55.881Z,88.40
2023-02-07T11:41:30.803Z,88.08
2023-02-07T11:43:57.350Z,86.11
2023-02-07T11:46:46.417Z,83.08
2023-02-07T11:49:37.991Z,86.99
2023-02-07T11:52:05.188Z,84.79
2023-02-07T11:54:32.620Z,84.79
2023-02-07T11:57:14.668Z,82.43
2023-02-07T11:59:49.988Z,83.21
2023-02-07T12:02:24.300Z,83.07
2023-02-07T12:04:52.871Z,79.82
2023-02-07T12:07:27.747Z,79.99
2023-02-07T12:10:01.760Z,80.11
2023-02-07T12:12:43.663Z,80.64
2023-02-07T12:15:25.640Z,82.44
2023-02-07T12:18:36.457Z,79.06
2023-02-07T12:21:22.519Z,81.05
2023-02-07T12:24:00.410Z,83.61
2023-02-07T12:26:32.734Z,84.52
2023-02-07T12:29:17.823Z,86.12
2023-02-07T12:32:07.602Z,84.13
2023-02-07T12:35:12.000Z,82.78
2023-02-07T12:38:06.826Z,81.39
2023-02-07T12:40:38.285Z,77.88
2023-02-07T12:43:38.103Z,75.37
2023-02-07T12:46:38.395Z,74.78
2023-02-07T12:49:22.786Z,73.87
2023-02-07T12:52:18.576Z,74.39
2023-02-07T12:55:01.856Z,71.46
2023-02-07T12:57:37.887Z,72.54
2023-02-07T13:00:28.845Z,70.25
2023-02-07T13:03:26.027Z,69.00
2023-02-07T13:06:31.012Z,72.57
2023-02-07T13:09:23.683Z,66.39
2023-02-07T13:11:58.930Z,68.00
2023-02-07T13:14:35.568Z,66.21
2023-02-07T13:17:14.438Z,67.18
2023-02-07T13:20:11.208Z,66.90
2023-02-07T13:22:50.485Z,67.55
2023-02-07T13:25:23.395Z,66.93
2023-02-07T13:27:54.719Z,68.35
2023-02-07T13:30:22.303Z,67.40
2023-02-07T13:32:50.776Z,66.89
2023-02-07T13:35:25.012Z,67.55
2023-02-07T13:38:18.951Z,64.79
2023-02-07T13:41:06.016Z,63.40
2023-02-07T13:44:01.674Z,62.67
2023-02-07T13:47:11.653Z,62.45
2023-02-07T13:49:53.437Z,61.70
2023-02-07T13:52:34.806Z,61.50
2023-02-07T13:55:20.524Z,58.53
2023-02-07T13:58:05.978Z,58.19
2023-02-07T14:00:53.515Z,57.40
2023-02-07T14:03:22.723Z,59.44
2023-02-07T14:05:49.838Z,60.02
2023-02-07T14:08:16.622Z,58.15
2023-02-07T14:10:47.857Z,59.02
2023-02-07T14:13:26.827Z,58.10
2023-02-07T14:15:56.675Z,58.31
2023-02-07T14:18:44.783Z,59.88
2023-02-07T14:21:21.086Z,56.94
2023-02-07T14:23:53.925Z,57.92
2023-02-07T14:26:36.701Z,56.56
2023-02-07T14:29:24.576Z,56.65
2023-02-07T14:31:55.725Z,56.79
2023-02-07T14:34:28.509Z,58.59
2023-02-07T14:36:55.225Z,56.96
2023-02-07T14:39:29.997Z,58.51
2023-02-07T14:42:11.360Z,58.39
2023-02-07T14:44:41.600Z,59.68
2023-02-07T14:47:19.890Z,59.76
2023-02-07T14:49:50.522Z,59.76
2023-02-07T14:52:24.425Z,60.15
2023-02-07T14:54:56.016Z,61.01
2023-02-07T14:57:43.273Z,62.23
2023-02-07T15:00:12.930Z,62.45
2023-02-07T15:02:43.557Z,64.47
2023-02-07T15:05:13.465Z,65.41
2023-02-07T15:07:40.802Z,66.78
2023-02-07T15:10:14.702Z,66.25
2023-02-07T15:12:45.782Z,66.91
2023-02-07T15:15:25.893Z,66.63
2023-02-07T15:17:55.376Z,67.12
2023-02-07T15:20:34.363Z,68.71
2023-02-07T15:23:04.372Z,68.57
2023-02-07T15:25:32.795Z,67.54
2023-02-07T15:28:01.265Z,67.57
2023-02-07T15:30:28.630Z,68.50
2023-02-07T15:32:55.348Z,69.01
2023-02-07T15:35:36.791Z,68.04
2023-02-07T15:38:16.063Z,67.76
2023-02-07T15:40:42.886Z,68.62
2023-02-07T15:43:29.563Z,69.83
2023-02-07T15:46:09.623Z,69.65
2023-02-07T15:48:55.017Z,69.47
2023-02-07T15:51:26.506Z,69.71
2023-02-07T15:53:57.496Z,70.11
2023-02-07T15:56:25.043Z,70.45
2023-02-07T15:58:53.998Z,70.07
2023-02-07T16:01:26.325Z,70.51
2023-02-07T16:03:56.520Z,71.25
2023-02-07T16:06:26.046Z,71.39
2023-02-07T16:08:55.158Z,71.71
2023-02-07T16:11:27.806Z,71.31
2023-02-07T16:13:54.451Z,71.82
2023-02-07T16:16:26.493Z,71.80
2023-02-07T16:19:08.089Z,73.14
2023-02-07T16:21:36.721Z,73.42
2023-02-07T16:24:13.793Z,73.16
2023-02-07T16:26:40.947Z,74.09
2023-02-07T16:29:08.552Z,74.52
2023-02-07T16:31:35.622Z,74.40
2023-02-07T16:34:02.328Z,75.23
2023-02-07T16:36:29.284Z,75.87
2023-02-07T16:38:55.950Z,76.78
2023-02-07T16:41:32.378Z,76.51
2023-02-07T16:44:06.652Z,76.96
2023-02-07T16:46:34.219Z,77.01
2023-02-07T16:49:01.415Z,77.18
2023-02-07T16:51:28.346Z,77.11
2023-02-07T16:53:55.053Z,77.09
2023-02-07T16:56:26.499Z,77.03
2023-02-07T16:58:53.307Z,77.31
2023-02-07T17:01:21.624Z,77.65
2023-02-07T17:03:48.784Z,78.43
2023-02-07T17:06:20.570Z,78.72
2023-02-07T17:08:48.386Z,79.84
2023-02-07T17:11:20.726Z,80.31
2023-02-07T17:13:47.535Z,81.60
2023-02-07T17:16:14.294Z,82.92
2023-02-07T17:18:41.230Z,83.13
2023-02-07T17:21:13.672Z,84.18
2023-02-07T17:23:40.373Z,85.62
2023-02-07T17:26:25.164Z,85.07
2023-02-07T17:28:52.692Z,85.36
2023-02-07T17:31:19.522Z,86.31
2023-02-07T17:33:46.212Z,85.49
2023-02-07T17:36:14.523Z,86.65
2023-02-07T17:38:42.572Z,87.10
2023-02-07T17:41:11.700Z,87.98
2023-02-07T17:43:41.216Z,88.68
2023-02-07T17:46:20.161Z,89.59
2023-02-07T17:48:49.143Z,89.33
2023-02-07T17:51:17.051Z,88.69
2023-02-07T17:53:44.551Z,88.63
2023-02-07T17:56:30.767Z,89.85
2023-02-07T17:59:02.920Z,90.34
2023-02-07T18:01:33.926Z,91.17
2023-02-07T18:04:02.461Z,91.66
2023-02-07T18:06:30.387Z,92.51
2023-02-07T18:09:00.989Z,92.07
2023-02-07T18:11:28.173Z,91.85
2023-02-07T18:13:57.136Z,91.78
2023-02-07T18:16:26.338Z,92.50
2023-02-07T18:18:55.923Z,93.62
2023-02-07T18:21:22.696Z,93.98
2023-02-07T18:23:49.661Z,94.66
2023-02-07T18:26:16.700Z,95.40
2023-02-07T18:28:43.915Z,95.62
2023-02-07T18:31:12.353Z,95.84
2023-02-07T18:33:39.151Z,96.02
2023-02-07T18:36:06.633Z,95.47
2023-02-07T18:38:33.309Z,96.02
2023-02-07T18:40:59.896Z,96.42
2023-02-07T18:43:26.582Z,96.98
2023-02-07T18:45:53.265Z,96.74
2023-02-07T18:48:19.933Z,97.06
2023-02-07T18:50:48.147Z,97.39
2023-02-07T18:53:14.861Z,97.20
2023-02-07T18:55:42.416Z,97.49
2023-02-07T18:58:09.158Z,96.80
2023-02-07T19:00:35.761Z,96.21
2023-02-07T19:03:02.414Z,96.46
2023-02-07T19:05:29.097Z,97.44
2023-02-07T19:07:56.279Z,97.36
2023-02-07T19:10:22.970Z,97.02
2023-02-07T19:12:49.591Z,97.25
2023-02-07T19:15:16.367Z,97.92
2023-02-07T19:17:43.053Z,98.89
2023-02-07T19:20:10.177Z,98.55
2023-02-07T19:22:37.658Z,98.60
2023-02-07T19:25:05.718Z,98.50
2023-02-07T19:27:32.613Z,98.12
2023-02-07T19:29:59.547Z,98.13
2023-02-07T19:32:26.253Z,97.43
2023-02-07T19:34:52.969Z,96.85
2023-02-07T19:37:19.666Z,97.06
2023-02-07T19:39:46.536Z,96.52
2023-02-07T19:42:13.361Z,95.60
2023-02-07T19:44:39.989Z,95.45
2023-02-07T19:47:06.729Z,95.20
2023-02-07T19:49:33.436Z,94.74
2023-02-07T19:52:00.151Z,94.01
2023-02-07T19:54:26.762Z,93.37
2023-02-07T19:56:53.382Z,93.34
2023-02-07T19:59:20.062Z,92.93
2023-02-07T20:01:46.745Z,92.15
2023-02-07T20:04:13.565Z,91.33
2023-02-07T20:06:40.412Z,90.98
2023-02-07T20:09:07.914Z,90.23
2023-02-07T20:11:35.210Z,89.27
2023-02-07T20:14:06.921Z,89.03
2023-02-07T20:16:36.758Z,88.84
2023-02-07T20:19:06.714Z,88.63
2023-02-07T20:21:35.736Z,88.22
2023-02-07T20:24:02.628Z,88.28
2023-02-07T20:26:32.337Z,87.27
2023-02-07T20:29:00.871Z,86.78
2023-02-07T20:31:29.205Z,86.83
2023-02-07T20:33:57.621Z,86.11
2023-02-07T20:36:25.783Z,86.35
2023-02-07T20:38:53.180Z,85.81
2023-02-07T20:41:29.280Z,85.44
2023-02-07T20:44:05.237Z,83.75
2023-02-07T20:46:34.309Z,83.48
2023-02-07T20:49:03.593Z,83.47
2023-02-07T20:51:30.770Z,83.33
2023-02-07T20:53:59.290Z,82.26
2023-02-07T20:56:27.301Z,82.29
2023-02-07T20:58:58.078Z,81.92
2023-02-07T21:01:27.372Z,81.57
2023-02-07T21:03:56.243Z,81.87
2023-02-07T21:06:24.122Z,81.44
2023-02-07T21:08:55.344Z,81.34
2023-02-07T21:11:22.158Z,81.33
2023-02-07T21:13:53.680Z,81.21
2023-02-07T21:16:21.226Z,81.08
2023-02-07T21:18:48.370Z,80.67
2023-02-07T21:21:15.918Z,81.39
2023-02-07T21:23:42.813Z,80.55
2023-02-07T21:26:13.825Z,79.95
2023-02-07T21:28:40.923Z,80.30
2023-02-07T21:31:14.677Z,80.14
2023-02-07T21:33:41.393Z,79.90
2023-02-07T21:36:11.093Z,80.00
2023-02-07T21:38:39.612Z,79.37
2023-02-07T21:41:08.633Z,78.85
2023-02-07T21:43:36.095Z,78.58
2023-02-07T21:46:09.049Z,78.56
2023-02-07T21:48:37.075Z,78.66
2023-02-07T21:51:13.769Z,77.71
2023-02-07T21:53:40.603Z,77.81
2023-02-07T21:56:11.503Z,77.40
2023-02-07T21:58:38.891Z,77.07
2023-02-07T22:01:08.297Z,77.06
2023-02-07T22:03:36.726Z,76.32
2023-02-07T22:06:05.000Z,76.81
2023-02-07T22:08:32.410Z,77.02
2023-02-07T22:11:05.918Z,76.92
2023-02-07T22:13:33.454Z,75.25
2023-02-07T22:16:00.475Z,75.37
2023-02-07T22:18:27.503Z,75.33
2023-02-07T22:20:54.368Z,75.64
2023-02-07T22:23:21.141Z,75.48
2023-02-07T22:25:47.745Z,75.47
2023-02-07T22:28:14.492Z,74.73
2023-02-07T22:30:41.594Z,74.81
2023-02-07T22:33:10.006Z,74.61
2023-02-07T22:35:38.450Z,74.72
2023-02-07T22:38:05.335Z,74.71
2023-02-07T22:40:36.553Z,74.07
2023-02-07T22:43:06.316Z,73.36
2023-02-07T22:45:35.859Z,73.64
2023-02-07T22:48:03.460Z,73.39
2023-02-07T22:50:30.062Z,73.45
2023-02-07T22:52:57.460Z,74.16
2023-02-07T22:55:24.160Z,74.54
2023-02-07T22:57:51.691Z,74.94
2023-02-07T23:00:19.912Z,75.29
2023-02-07T23:02:46.775Z,75.16
2023-02-07T23:05:13.464Z,75.68
2023-02-07T23:07:40.383Z,76.05
2023-02-07T23:10:08.446Z,76.41
2023-02-07T23:12:35.324Z,76.35
2023-02-07T23:15:02.830Z,76.54
2023-02-07T23:17:29.502Z,76.70
2023-02-07T23:19:56.647Z,77.02
2023-02-07T23:22:23.414Z,76.84
2023-02-07T23:24:50.409Z,77.24
2023-02-07T23:27:17.169Z,77.44
2023-02-07T23:29:44.091Z,77.56
2023-02-07T23:32:10.706Z,77.53
2023-02-07T23:34:37.302Z,77.79
2023-02-07T23:37:04.130Z,78.15
2023-02-07T23:39:31.109Z,78.16
2023-02-07T23:41:58.391Z,78.33
2023-02-07T23:44:25.290Z,78.75
2023-02-07T23:46:52.421Z,78.52
2023-02-07T23:49:19.277Z,78.84
2023-02-07T23:51:45.904Z,79.08
2023-02-07T23:54:13.167Z,79.44
2023-02-07T23:56:39.860Z,79.56
2023-02-07T23:59:06.885Z,79.46
